Time;durP1;ratioP1;P1;durP2;ratioP2;P2;SDS_P1;SDS_P2;PMS_P1;PMS_P2;Temp;Humidity;BMP_temperature;BMP_pressure;BME280_temperature;BME280_humidity;BME280_pressure;Samples;Min_cycle;Max_cycle;Signal;HPM_P1;HPM_P2
2023/05/07 00:00:06;;;;;;;342.10;160.13;;;;;;;15.14;99.77;99836.88;345900;28;1232;-74
2023/05/07 00:00:18;;;;;;;339.75;154.30;;;;;;;15.20;99.74;99839.16;345780;28;1262;-74
2023/05/07 00:00:29;;;;;;;340.92;153.50;;;;;;;15.24;99.52;99830.13;346143;28;884;-74
2023/05/07 00:00:40;;;;;;;345.38;156.57;;;;;;;15.31;99.39;99836.75;346101;28;856;-74
2023/05/07 00:00:51;;;;;;;345.73;158.20;;;;;;;15.30;98.90;99838.56;346038;28;1070;-74
2023/05/07 00:01:02;;;;;;;343.43;159.20;;;;;;;15.30;99.16;99838.56;344757;28;793;-74
2023/05/07 00:01:12;;;;;;;343.50;159.07;;;;;;;15.30;98.85;99835.06;344792;28;880;-74
2023/05/07 00:01:23;;;;;;;345.10;159.67;;;;;;;15.31;99.22;99832.34;343426;28;734;-74
2023/05/07 00:01:33;;;;;;;347.03;159.50;;;;;;;15.35;99.02;99842.72;343411;28;845;-74
2023/05/07 00:01:43;;;;;;;346.60;158.90;;;;;;;15.36;99.15;99837.34;343300;28;1294;-74
2023/05/07 00:01:54;;;;;;;347.10;161.40;;;;;;;15.36;98.93;99842.63;343357;28;884;-74
2023/05/07 00:02:04;;;;;;;345.25;160.95;;;;;;;15.35;98.82;99838.28;343706;28;1334;-74
2023/05/07 00:02:15;;;;;;;347.30;162.10;;;;;;;15.34;98.58;99833.97;344700;28;1079;-74
2023/05/07 00:02:25;;;;;;;346.83;161.45;;;;;;;15.36;98.67;99834.72;344554;28;1250;-74
2023/05/07 00:02:37;;;;;;;346.23;162.83;;;;;;;15.31;98.42;99834.97;347307;28;1276;-74
2023/05/07 00:02:47;;;;;;;343.70;160.80;;;;;;;15.32;98.78;99841.09;347259;28;1139;-74
2023/05/07 00:02:57;;;;;;;344.50;159.97;;;;;;;15.35;98.81;99838.28;344667;28;1407;-74
2023/05/07 00:03:08;;;;;;;344.77;158.88;;;;;;;15.35;99.02;99838.28;345698;28;843;-74
2023/05/07 00:03:18;;;;;;;346.60;160.10;;;;;;;15.39;98.96;99841.59;344959;28;1272;-74
2023/05/07 00:03:29;;;;;;;346.83;162.43;;;;;;;15.37;99.01;99836.41;344803;28;753;-74
2023/05/07 00:03:39;;;;;;;347.03;164.23;;;;;;;15.41;99.06;99837.09;345932;28;1164;-74
2023/05/07 00:03:50;;;;;;;345.27;164.35;;;;;;;15.43;99.00;99846.63;348593;28;1489;-74
2023/05/07 00:04:00;;;;;;;343.73;164.00;;;;;;;15.46;98.72;99835.91;348710;28;1301;-74
2023/05/07 00:04:10;;;;;;;346.27;164.13;;;;;;;15.48;98.98;99836.66;348656;28;899;-74
2023/05/07 00:04:21;;;;;;;346.33;164.05;;;;;;;15.50;98.75;99832.16;348754;28;996;-74
2023/05/07 00:04:36;;;;;;;346.27;163.53;;;;;;;15.51;98.72;99841.75;348842;28;955;-74
2023/05/07 00:04:46;;;;;;;342.20;161.60;;;;;;;15.53;98.69;99845.16;349974;28;1189;-74
2023/05/07 00:04:57;;;;;;;345.27;162.23;;;;;;;15.51;98.68;99835.63;347626;28;1216;-74
2023/05/07 00:05:08;;;;;;;343.08;163.48;;;;;;;15.47;98.61;99837.59;347146;28;1552;-74
2023/05/07 00:05:19;;;;;;;345.23;164.35;;;;;;;15.43;98.93;99840.50;344806;28;1029;-74
2023/05/07 00:05:29;;;;;;;342.33;162.90;;;;;;;15.40;99.11;99836.25;343394;28;1604;-74
2023/05/07 00:05:41;;;;;;;340.83;158.70;;;;;;;15.37;99.46;99836.41;344730;28;1338;-74
2023/05/07 00:05:52;;;;;;;338.95;158.15;;;;;;;15.39;99.33;99838.97;344545;28;1456;-74
2023/05/07 00:06:03;;;;;;;340.20;161.60;;;;;;;15.42;99.13;99838.78;345876;28;1521;-74
2023/05/07 00:06:14;;;;;;;340.30;162.50;;;;;;;15.45;99.11;99839.47;344712;28;1316;-74
2023/05/07 00:06:26;;;;;;;340.80;163.50;;;;;;;15.48;99.07;99843.72;344634;28;1215;-74
2023/05/07 00:06:36;;;;;;;340.10;161.35;;;;;;;15.51;99.21;99835.63;343769;28;1269;-74
2023/05/07 00:06:47;;;;;;;342.37;163.77;;;;;;;15.52;98.55;99834.69;340758;28;1449;-74
2023/05/07 00:06:57;;;;;;;343.10;163.20;;;;;;;15.51;98.70;99838.28;340594;29;928;-74
2023/05/07 00:07:07;;;;;;;344.10;163.23;;;;;;;15.50;98.85;99841.84;339070;28;1662;-74
2023/05/07 00:07:18;;;;;;;343.60;162.57;;;;;;;15.52;98.70;99840.81;339806;28;3695;-74
2023/05/07 00:07:28;;;;;;;342.67;160.83;;;;;;;15.54;98.50;99838.09;336901;29;3328;-74
2023/05/07 00:07:39;;;;;;;342.13;162.53;;;;;;;15.53;98.02;99836.41;340841;28;5401;-74
2023/05/07 00:07:50;;;;;;;344.35;163.00;;;;;;;15.48;97.89;99841.09;342851;28;859;-74
2023/05/07 00:08:00;;;;;;;343.08;161.57;;;;;;;15.43;97.95;99836.06;340426;28;3279;-74
2023/05/07 00:08:11;;;;;;;342.20;159.90;;;;;;;15.41;98.20;99843.22;339331;29;1242;-74
2023/05/07 00:08:21;;;;;;;341.63;160.73;;;;;;;15.44;98.33;99843.06;336406;29;1563;-74
2023/05/07 00:08:32;;;;;;;343.97;161.57;;;;;;;15.44;98.04;99831.66;336333;29;1724;-74
2023/05/07 00:08:42;;;;;;;347.03;162.10;;;;;;;15.45;98.01;99839.47;333017;29;906;-74
2023/05/07 00:08:52;;;;;;;346.03;161.57;;;;;;;15.46;97.92;99835.03;332566;29;1890;-74
2023/05/07 00:09:04;;;;;;;345.23;163.73;;;;;;;15.50;97.58;99833.94;333296;29;2109;-74
2023/05/07 00:09:14;;;;;;;343.75;165.05;;;;;;;15.51;97.82;99835.63;334024;29;1124;-74
2023/05/07 00:09:25;;;;;;;344.80;165.20;;;;;;;15.53;97.72;99847.81;336334;29;2147;-74
2023/05/07 00:09:35;;;;;;;343.67;163.40;;;;;;;15.54;97.94;99833.69;336712;29;1565;-74
2023/05/07 00:09:46;;;;;;;343.10;161.82;;;;;;;15.50;97.55;99836.56;334116;29;900;-74
2023/05/07 00:09:56;;;;;;;341.33;161.63;;;;;;;15.50;97.68;99833.94;331681;29;1205;-74
2023/05/07 00:10:07;;;;;;;346.25;165.05;;;;;;;15.45;97.52;99839.47;332734;29;1345;-74
2023/05/07 00:10:18;;;;;;;347.92;165.20;;;;;;;15.43;97.67;99836.06;332536;29;1861;-74
2023/05/07 00:10:28;;;;;;;346.20;163.80;;;;;;;15.45;97.79;99831.56;330583;29;1283;-74
2023/05/07 00:10:39;;;;;;;339.43;161.87;;;;;;;15.42;97.88;99834.38;327562;29;2455;-74
2023/05/07 00:10:49;;;;;;;339.75;161.95;;;;;;;15.39;97.44;99837.19;327585;29;2090;-74
2023/05/07 00:11:00;;;;;;;342.43;161.73;;;;;;;15.41;97.40;99835.31;328015;30;871;-74
2023/05/07 00:11:10;;;;;;;343.67;160.40;;;;;;;15.42;97.11;99833.53;330960;29;2279;-75
2023/05/07 00:11:21;;;;;;;343.67;159.98;;;;;;;15.44;96.83;99832.50;328157;29;2708;-74
2023/05/07 00:11:31;;;;;;;343.07;159.27;;;;;;;15.48;97.20;99836.66;325262;30;2905;-74
2023/05/07 00:11:41;;;;;;;344.80;161.85;;;;;;;15.44;96.87;99832.50;323269;30;869;-74
2023/05/07 00:11:52;;;;;;;344.77;161.73;;;;;;;15.40;96.48;99830.97;324422;30;1916;-74
2023/05/07 00:12:02;;;;;;;342.98;162.20;;;;;;;15.43;96.39;99829.94;325755;30;1268;-74
2023/05/07 00:12:13;;;;;;;343.13;161.93;;;;;;;15.42;96.55;99837.00;327617;30;1252;-74
2023/05/07 00:12:23;;;;;;;342.33;161.73;;;;;;;15.46;96.69;99833.25;322497;30;2176;-74
2023/05/07 00:12:33;;;;;;;344.03;162.90;;;;;;;15.46;96.34;99829.78;320159;30;2513;-74
2023/05/07 00:12:44;;;;;;;342.25;162.60;;;;;;;15.49;96.25;99834.88;321899;30;1297;-74
2023/05/07 00:12:54;;;;;;;343.10;164.20;;;;;;;15.47;96.19;99837.59;316144;30;3046;-75
2023/05/07 00:13:05;;;;;;;340.42;162.30;;;;;;;15.48;96.33;99831.38;317493;30;3162;-75
2023/05/07 00:13:16;;;;;;;344.13;164.43;;;;;;;15.52;96.21;99840.81;319762;30;797;-75
2023/05/07 00:13:27;;;;;;;344.55;165.55;;;;;;;15.54;96.35;99838.94;314967;31;1301;-75
2023/05/07 00:13:37;;;;;;;349.38;165.02;;;;;;;15.53;95.94;99831.13;313769;31;3716;-74
2023/05/07 00:13:47;;;;;;;346.43;163.63;;;;;;;15.54;96.33;99836.31;315040;31;3342;-74
2023/05/07 00:13:58;;;;;;;348.23;164.10;;;;;;;15.55;96.31;99832.75;313908;31;1398;-74
2023/05/07 00:14:08;;;;;;;350.77;167.97;;;;;;;15.58;96.03;99837.88;311252;31;2467;-74
2023/05/07 00:14:19;;;;;;;350.02;164.77;;;;;;;15.56;95.92;99837.09;307923;31;2190;-74
2023/05/07 00:14:29;;;;;;;348.73;162.67;;;;;;;15.52;95.22;99838.19;306336;32;847;-74
2023/05/07 00:14:39;;;;;;;345.53;162.13;;;;;;;15.53;95.36;99831.97;305585;32;3065;-74
2023/05/07 00:14:50;;;;;;;345.42;164.45;;;;;;;15.55;95.50;99830.09;307233;31;3669;-74
2023/05/07 00:15:02;;;;;;;343.73;164.67;;;;;;;15.55;95.34;99840.66;307539;32;1605;-74
2023/05/07 00:15:12;;;;;;;341.83;163.43;;;;;;;15.53;95.27;99831.13;307176;32;864;-74
2023/05/07 00:15:23;;;;;;;340.77;162.80;;;;;;;15.53;95.49;99836.41;304511;32;4413;-74
2023/05/07 00:15:33;;;;;;;340.73;163.23;;;;;;;15.54;95.36;99832.81;301391;32;4456;-74
2023/05/07 00:15:44;;;;;;;340.35;162.15;;;;;;;15.55;95.55;99834.53;300126;32;1614;-74
2023/05/07 00:15:54;;;;;;;340.43;162.57;;;;;;;15.56;95.43;99831.84;301928;32;4692;-74
2023/05/07 00:16:05;;;;;;;340.92;163.32;;;;;;;15.54;94.97;99833.69;302078;32;4544;-74
2023/05/07 00:16:15;;;;;;;341.37;166.20;;;;;;;15.57;94.89;99838.81;304135;32;1488;-74
2023/05/07 00:16:25;;;;;;;343.15;163.60;;;;;;;15.57;94.70;99838.81;306645;32;3407;-74
2023/05/07 00:16:36;;;;;;;344.90;164.03;;;;;;;15.58;94.65;99832.59;303927;32;3660;-74
2023/05/07 00:16:46;;;;;;;343.75;161.90;;;;;;;15.62;94.65;99830.59;299473;32;4733;-74
2023/05/07 00:16:57;;;;;;;345.13;166.13;;;;;;;15.63;94.63;99834.94;300424;32;5256;-74
2023/05/07 00:17:07;;;;;;;347.40;167.88;;;;;;;15.66;94.53;99836.53;300426;32;5246;-74
2023/05/07 00:17:17;;;;;;;347.60;170.93;;;;;;;15.67;94.43;99833.81;296317;32;6005;-75
2023/05/07 00:17:28;;;;;;;344.27;166.50;;;;;;;15.66;94.42;99836.53;299356;32;890;-76
2023/05/07 00:17:38;;;;;;;339.47;165.80;;;;;;;15.67;94.14;99833.81;298548;32;6007;-75
2023/05/07 00:17:49;;;;;;;339.30;164.97;;;;;;;15.67;94.31;99839.09;297790;33;6117;-75
2023/05/07 00:17:59;;;;;;;339.65;167.52;;;;;;;15.70;94.15;99833.66;295841;33;1225;-75
2023/05/07 00:18:10;;;;;;;341.80;169.03;;;;;;;15.70;94.11;99832.78;291385;33;6322;-75
2023/05/07 00:18:22;;;;;;;343.60;170.63;;;;;;;15.71;94.04;99834.50;292322;33;5953;-75
2023/05/07 00:18:32;;;;;;;342.98;169.55;;;;;;;15.72;93.75;99842.31;293981;33;4101;-75
2023/05/07 00:18:43;;;;;;;342.73;169.75;;;;;;;15.73;94.24;99832.63;293130;33;969;-75
2023/05/07 00:18:53;;;;;;;342.60;169.40;;;;;;;15.74;94.16;99835.16;292815;33;5385;-75
2023/05/07 00:19:04;;;;;;;343.27;169.55;;;;;;;15.75;94.04;99836.00;289701;33;6031;-75
2023/05/07 00:19:14;;;;;;;343.13;168.27;;;;;;;15.74;93.53;99839.59;291998;33;1219;-75
2023/05/07 00:19:25;;;;;;;346.02;170.20;;;;;;;15.72;93.59;99831.75;290563;33;7338;-75
2023/05/07 00:19:35;;;;;;;346.53;171.63;;;;;;;15.72;93.66;99836.19;291373;33;8488;-75
2023/05/07 00:19:46;;;;;;;345.25;171.07;;;;;;;15.67;93.29;99832.97;291157;34;811;-75
2023/05/07 00:19:56;;;;;;;344.48;171.43;;;;;;;15.61;93.23;99834.16;287369;34;906;-75
2023/05/07 00:20:07;;;;;;;345.57;172.07;;;;;;;15.61;93.97;99837.66;281039;34;9283;-75
2023/05/07 00:20:17;;;;;;;347.20;172.60;;;;;;;15.55;93.45;99830.09;279619;34;8820;-75
2023/05/07 00:20:28;;;;;;;350.90;174.70;;;;;;;15.56;93.74;99825.69;286421;34;907;-75
2023/05/07 00:20:38;;;;;;;351.93;175.77;;;;;;;15.57;93.33;99838.81;281103;34;8814;-75
2023/05/07 00:20:49;;;;;;;350.47;174.90;;;;;;;15.55;93.50;99832.75;280324;34;5949;-75
2023/05/07 00:20:59;;;;;;;349.37;174.30;;;;;;;15.61;92.97;99835.03;283822;34;866;-75
2023/05/07 00:22:51;;;;;;;333.87;156.14;;;;;;;15.71;92.08;99834.50;2492939;27;20499;-74
2023/05/07 00:23:02;;;;;;;341.73;164.53;;;;;;;15.71;92.05;99837.13;352889;28;1187;-74
2023/05/07 00:23:12;;;;;;;340.42;163.25;;;;;;;15.71;92.23;99832.72;351663;28;725;-74
2023/05/07 00:23:23;;;;;;;340.40;162.97;;;;;;;15.73;91.88;99833.47;350158;28;1149;-74
2023/05/07 00:23:33;;;;;;;340.48;163.77;;;;;;;15.74;92.22;99831.69;348836;28;1366;-74
2023/05/07 00:23:43;;;;;;;340.60;162.70;;;;;;;15.73;92.70;99833.47;349142;28;868;-74
2023/05/07 00:23:54;;;;;;;343.73;164.50;;;;;;;15.76;92.60;99835.06;347504;28;1232;-74
2023/05/07 00:24:04;;;;;;;344.48;166.10;;;;;;;15.74;92.78;99835.16;347263;28;1733;-74
2023/05/07 00:24:15;;;;;;;345.37;168.20;;;;;;;15.77;92.66;99834.13;347424;28;1038;-74
2023/05/07 00:24:25;;;;;;;343.92;168.93;;;;;;;15.75;93.19;99833.38;347062;28;1422;-74
2023/05/07 00:24:36;;;;;;;342.00;166.70;;;;;;;15.72;92.74;99841.47;347402;28;860;-74
2023/05/07 00:24:46;;;;;;;344.08;165.88;;;;;;;15.68;92.87;99824.13;348815;28;1374;-74
2023/05/07 00:24:56;;;;;;;344.67;163.83;;;;;;;15.62;92.85;99831.44;347327;28;1338;-74
2023/05/07 00:25:07;;;;;;;344.37;163.77;;;;;;;15.61;92.81;99829.75;348872;28;887;-74
2023/05/07 00:25:19;;;;;;;343.60;163.83;;;;;;;15.62;93.25;99831.44;346739;28;1444;-74
2023/05/07 00:25:30;;;;;;;344.60;166.45;;;;;;;15.61;93.22;99832.38;343204;28;1342;-74
2023/05/07 00:25:40;;;;;;;347.98;174.80;;;;;;;15.60;93.12;99828.03;344631;28;804;-74
2023/05/07 00:25:50;;;;;;;349.27;176.93;;;;;;;15.62;93.11;99822.69;346513;28;3322;-74
2023/05/07 00:26:01;;;;;;;349.73;176.82;;;;;;;15.55;92.41;99821.34;345108;28;4961;-74
2023/05/07 00:26:11;;;;;;;349.43;173.73;;;;;;;15.51;92.68;99828.56;349167;28;5220;-73
2023/05/07 00:26:22;;;;;;;350.07;171.73;;;;;;;15.50;92.52;99832.16;349156;28;872;-74
2023/05/07 00:26:32;;;;;;;348.27;169.13;;;;;;;15.51;93.07;99828.56;347142;28;3303;-74
2023/05/07 00:26:42;;;;;;;347.70;169.23;;;;;;;15.48;93.00;99834.03;345913;28;1338;-74
2023/05/07 00:26:53;;;;;;;348.25;166.90;;;;;;;15.50;93.06;99826.88;346041;28;970;-74
2023/05/07 00:27:03;;;;;;;346.97;162.70;;;;;;;15.55;92.79;99837.16;347105;28;817;-74
2023/05/07 00:27:14;;;;;;;346.35;162.05;;;;;;;15.54;92.65;99823.13;346798;28;1317;-74
2023/05/07 00:27:24;;;;;;;344.70;166.43;;;;;;;15.51;92.48;99822.44;346220;28;911;-74
2023/05/07 00:27:35;;;;;;;351.23;169.57;;;;;;;15.50;92.04;99833.94;344951;28;1329;-74
2023/05/07 00:27:45;;;;;;;353.40;170.53;;;;;;;15.50;92.25;99826.88;345192;28;1591;-74
2023/05/07 00:27:57;;;;;;;351.45;167.73;;;;;;;15.51;92.29;99823.31;344729;28;817;-74
2023/05/07 00:28:07;;;;;;;345.50;164.82;;;;;;;15.50;92.27;99826.88;346201;28;931;-74
2023/05/07 00:28:18;;;;;;;348.57;166.10;;;;;;;15.47;92.54;99827.06;343314;28;864;-74
2023/05/07 00:28:28;;;;;;;348.93;166.80;;;;;;;15.49;92.63;99830.44;343325;28;973;-74
2023/05/07 00:28:39;;;;;;;351.85;168.57;;;;;;;15.48;92.99;99831.38;343463;28;797;-74
2023/05/07 00:28:49;;;;;;;348.83;165.15;;;;;;;15.50;92.74;99832.16;347077;28;1251;-74
2023/05/07 00:28:59;;;;;;;349.53;165.43;;;;;;;15.52;92.48;99830.28;342711;28;1194;-74
2023/05/07 00:29:10;;;;;;;348.60;165.40;;;;;;;15.50;92.73;99828.66;343361;28;987;-74
2023/05/07 00:29:20;;;;;;;347.42;166.10;;;;;;;15.53;92.34;99831.13;344763;28;1341;-74
2023/05/07 00:29:31;;;;;;;348.43;166.90;;;;;;;15.54;92.20;99833.69;345940;28;1132;-74
2023/05/07 00:29:41;;;;;;;347.02;166.65;;;;;;;15.57;92.44;99833.53;343260;28;1155;-74
2023/05/07 00:29:51;;;;;;;346.27;166.63;;;;;;;15.60;91.76;99835.13;338083;29;1290;-74
2023/05/07 00:30:02;;;;;;;344.97;165.90;;;;;;;15.61;91.78;99829.75;341407;28;1301;-74
2023/05/07 00:30:12;;;;;;;344.75;166.45;;;;;;;15.66;91.50;99826.00;341913;28;1807;-74
2023/05/07 00:30:23;;;;;;;347.13;166.93;;;;;;;15.63;91.63;99833.16;342037;28;1451;-74
2023/05/07 00:30:33;;;;;;;346.70;166.43;;;;;;;15.66;91.40;99833.91;343078;28;1281;-74
2023/05/07 00:30:44;;;;;;;343.63;163.83;;;;;;;15.67;91.60;99838.25;340191;29;1266;-74
2023/05/07 00:30:54;;;;;;;340.05;162.00;;;;;;;15.66;91.56;99831.28;338138;29;861;-74
2023/05/07 00:31:04;;;;;;;340.60;163.10;;;;;;;15.64;91.47;99831.34;339018;28;1526;-74
2023/05/07 00:31:15;;;;;;;342.60;164.60;;;;;;;15.60;91.63;99833.31;338857;28;1704;-74
2023/05/07 00:31:25;;;;;;;342.67;165.43;;;;;;;15.55;91.93;99827.47;339291;29;1513;-74
2023/05/07 00:31:36;;;;;;;340.25;162.18;;;;;;;15.53;92.09;99831.97;335823;29;818;-74
2023/05/07 00:31:46;;;;;;;339.67;161.90;;;;;;;15.53;92.66;99836.41;335453;29;1924;-74
2023/05/07 00:31:57;;;;;;;340.52;160.95;;;;;;;15.53;92.52;99826.69;336639;29;1306;-74
2023/05/07 00:32:08;;;;;;;343.53;165.27;;;;;;;15.55;92.57;99830.09;338016;29;1273;-74
2023/05/07 00:32:18;;;;;;;344.98;165.82;;;;;;;15.54;92.37;99833.69;338665;29;912;-74
2023/05/07 00:32:28;;;;;;;343.58;167.68;;;;;;;15.57;92.63;99828.25;337471;29;1305;-74
2023/05/07 00:32:39;;;;;;;342.63;167.73;;;;;;;15.60;92.34;99827.19;336922;29;861;-75
2023/05/07 00:32:50;;;;;;;344.43;166.97;;;;;;;15.62;92.34;99831.44;334997;29;1278;-74
2023/05/07 00:33:01;;;;;;;348.38;166.32;;;;;;;15.66;92.24;99836.53;334363;29;1488;-74
2023/05/07 00:33:11;;;;;;;348.20;165.63;;;;;;;15.67;92.25;99832.97;331201;29;1734;-74
2023/05/07 00:33:22;;;;;;;347.88;166.75;;;;;;;15.68;91.94;99829.41;332846;29;1342;-74
2023/05/07 00:33:32;;;;;;;343.90;168.17;;;;;;;15.68;92.09;99835.53;334137;29;1600;-74
2023/05/07 00:33:42;;;;;;;344.67;168.45;;;;;;;15.64;91.79;99828.72;334419;29;2002;-73
2023/05/07 00:33:53;;;;;;;345.77;167.77;;;;;;;15.66;91.85;99836.53;334260;29;1207;-73
2023/05/07 00:34:03;;;;;;;344.63;164.25;;;;;;;15.63;91.58;99822.59;330611;29;1462;-73
2023/05/07 00:34:13;;;;;;;343.50;163.17;;;;;;;15.66;91.80;99826.84;331431;29;847;-73
2023/05/07 00:34:24;;;;;;;344.27;164.80;;;;;;;15.66;91.83;99832.13;330920;29;1288;-73
2023/05/07 00:34:34;;;;;;;346.33;168.35;;;;;;;15.69;91.62;99831.09;332506;29;975;-73
2023/05/07 00:34:45;;;;;;;344.77;168.40;;;;;;;15.68;91.56;99837.31;331764;29;1434;-73
2023/05/07 00:34:55;;;;;;;343.50;168.18;;;;;;;15.64;91.60;99824.28;331762;29;1321;-73
2023/05/07 00:35:06;;;;;;;344.67;169.00;;;;;;;15.64;91.71;99832.22;325407;30;3715;-74
2023/05/07 00:35:17;;;;;;;351.42;171.75;;;;;;;15.62;91.34;99826.16;324909;29;4842;-76
2023/05/07 00:35:28;;;;;;;353.00;172.73;;;;;;;15.65;91.48;99833.06;325771;30;5836;-74
2023/05/07 00:35:39;;;;;;;353.67;174.63;;;;;;;15.67;91.52;99831.19;325503;30;1282;-75
2023/05/07 00:35:49;;;;;;;353.02;173.70;;;;;;;15.71;91.39;99829.22;323606;30;2373;-75
2023/05/07 00:36:01;;;;;;;354.42;176.07;;;;;;;15.72;91.33;99831.75;322022;30;2429;-74
2023/05/07 00:36:12;;;;;;;348.55;171.38;;;;;;;15.74;91.03;99829.03;319506;30;2254;-74
2023/05/07 00:36:22;;;;;;;346.87;168.33;;;;;;;15.75;91.19;99834.22;319593;30;1301;-74
2023/05/07 00:36:32;;;;;;;347.23;167.63;;;;;;;15.73;91.39;99833.47;318258;30;1448;-74
2023/05/07 00:36:43;;;;;;;346.92;166.88;;;;;;;15.74;91.05;99823.75;319196;30;1875;-74
2023/05/07 00:36:53;;;;;;;346.93;167.43;;;;;;;15.68;91.42;99824.13;322159;30;1536;-74
2023/05/07 00:37:04;;;;;;;349.30;169.50;;;;;;;15.68;91.07;99830.25;319733;30;2034;-74
2023/05/07 00:37:14;;;;;;;351.57;173.30;;;;;;;15.64;90.63;99831.34;315292;31;2365;-74
2023/05/07 00:37:25;;;;;;;353.55;175.25;;;;;;;15.53;90.79;99831.97;312835;31;1443;-74
2023/05/07 00:37:35;;;;;;;351.80;176.70;;;;;;;15.42;90.75;99823.81;314888;31;2941;-74
2023/05/07 00:37:45;;;;;;;355.23;177.35;;;;;;;15.42;90.72;99829.09;314068;31;3097;-75
2023/05/07 00:37:56;;;;;;;355.20;176.17;;;;;;;15.46;90.89;99830.63;314326;31;3294;-75
2023/05/07 00:38:06;;;;;;;351.90;174.00;;;;;;;15.46;91.09;99824.50;314031;31;886;-75
2023/05/07 00:38:17;;;;;;;349.43;172.83;;;;;;;15.51;90.99;99828.56;313759;31;3033;-74
2023/05/07 00:38:27;;;;;;;347.73;171.80;;;;;;;15.51;90.95;99838.28;308528;31;2413;-74
2023/05/07 00:38:37;;;;;;;347.40;169.88;;;;;;;15.47;90.65;99831.47;304864;32;1661;-74
2023/05/07 00:38:48;;;;;;;347.20;167.17;;;;;;;15.47;90.72;99832.31;304400;32;1958;-74
2023/05/07 00:38:59;;;;;;;347.80;165.70;;;;;;;15.49;90.80;99833.09;303201;32;2705;-74
2023/05/07 00:39:10;;;;;;;347.95;166.93;;;;;;;15.51;90.86;99827.72;302194;32;880;-74
2023/05/07 00:39:21;;;;;;;348.98;168.93;;;;;;;15.53;91.01;99831.97;305330;32;2734;-74
2023/05/07 00:39:31;;;;;;;349.70;170.73;;;;;;;15.59;90.84;99836.09;303083;32;3496;-74
2023/05/07 00:39:41;;;;;;;348.73;169.55;;;;;;;15.60;90.79;99830.69;302706;32;4561;-74
2023/05/07 00:39:52;;;;;;;348.43;168.53;;;;;;;15.62;90.88;99830.59;306237;32;1489;-74
2023/05/07 00:40:04;;;;;;;348.83;165.95;;;;;;;15.65;90.90;99825.16;300996;32;4640;-74
2023/05/07 00:40:14;;;;;;;350.45;166.02;;;;;;;15.68;90.92;99829.41;297505;32;5316;-74
2023/05/07 00:40:25;;;;;;;349.93;167.00;;;;;;;15.70;90.70;99828.38;297757;33;1448;-74
2023/05/07 00:40:35;;;;;;;343.33;166.00;;;;;;;15.71;90.63;99835.34;299110;32;4561;-74
2023/05/07 00:40:46;;;;;;;340.23;164.77;;;;;;;15.73;90.58;99827.34;299507;32;3453;-74
2023/05/07 00:40:56;;;;;;;337.73;163.18;;;;;;;15.74;91.10;99829.03;296638;32;3488;-74
2023/05/07 00:41:07;;;;;;;343.45;167.68;;;;;;;15.72;90.70;99831.75;297872;33;889;-74
2023/05/07 00:41:17;;;;;;;347.37;172.17;;;;;;;15.70;90.41;99828.38;293906;33;4815;-74
2023/05/07 00:41:27;;;;;;;348.50;173.63;;;;;;;15.60;90.31;99821.91;291850;33;5113;-74
2023/05/07 00:41:38;;;;;;;346.30;172.32;;;;;;;15.66;90.20;99834.75;293941;33;1753;-74
2023/05/07 00:41:48;;;;;;;344.50;171.67;;;;;;;15.64;90.48;99828.72;288208;33;5675;-74
2023/05/07 00:43:42;;;;;;;338.35;155.88;;;;;;;15.54;90.56;99833.69;2498057;27;20747;-74
2023/05/07 00:43:52;;;;;;;349.23;167.33;;;;;;;15.56;90.44;99837.09;355963;27;1161;-75
2023/05/07 00:44:03;;;;;;;348.63;167.55;;;;;;;15.59;90.29;99842.22;351588;28;1349;-74
2023/05/07 00:44:14;;;;;;;348.13;167.73;;;;;;;15.54;90.29;99833.69;351659;28;630;-74
2023/05/07 00:44:24;;;;;;;345.38;165.48;;;;;;;15.56;90.34;99829.19;350357;28;3487;-74
2023/05/07 00:44:35;;;;;;;346.02;169.38;;;;;;;15.58;90.47;99829.97;347507;28;4316;-74
2023/05/07 00:44:46;;;;;;;345.30;169.52;;;;;;;15.60;90.07;99837.75;349589;28;3110;-74
2023/05/07 00:44:56;;;;;;;348.38;171.95;;;;;;;15.54;90.56;99828.41;347346;28;1240;-74
2023/05/07 00:45:07;;;;;;;349.43;172.13;;;;;;;15.59;90.27;99836.09;348523;28;3331;-74
2023/05/07 00:45:18;;;;;;;347.63;170.77;;;;;;;15.61;90.30;99837.66;347639;28;860;-74
2023/05/07 00:45:28;;;;;;;344.83;167.43;;;;;;;15.57;90.24;99830.91;348800;28;940;-74
2023/05/07 00:45:39;;;;;;;345.75;167.10;;;;;;;15.58;90.68;99837.03;348733;28;1332;-74
2023/05/07 00:45:49;;;;;;;346.37;168.53;;;;;;;15.56;90.49;99828.31;350137;28;1172;-74
2023/05/07 00:46:00;;;;;;;345.95;168.57;;;;;;;15.55;90.77;99829.25;351490;28;1343;-74
2023/05/07 00:46:11;;;;;;;342.00;164.93;;;;;;;15.51;90.62;99828.56;349118;28;1198;-74
2023/05/07 00:46:22;;;;;;;342.88;164.93;;;;;;;15.50;90.81;99831.31;348712;28;1290;-74
2023/05/07 00:46:32;;;;;;;344.10;165.60;;;;;;;15.47;90.86;99829.69;350102;28;1436;-74
2023/05/07 00:46:44;;;;;;;345.43;166.80;;;;;;;15.51;90.83;99833.84;347442;28;1107;-74
2023/05/07 00:46:56;;;;;;;342.63;164.15;;;;;;;15.55;90.70;99832.75;347336;28;1418;-74
2023/05/07 00:47:07;;;;;;;342.40;163.02;;;;;;;15.56;90.82;99831.84;347336;28;5543;-74
2023/05/07 00:47:17;;;;;;;342.30;163.70;;;;;;;15.61;90.45;99834.16;347458;28;901;-74
2023/05/07 00:47:28;;;;;;;346.33;166.27;;;;;;;15.61;90.32;99835.03;349063;28;1058;-74
2023/05/07 00:47:39;;;;;;;349.37;168.70;;;;;;;15.62;89.89;99831.44;348375;28;1074;-74
2023/05/07 00:47:49;;;;;;;351.00;170.55;;;;;;;15.57;89.84;99838.81;344513;28;1370;-74
2023/05/07 00:48:00;;;;;;;347.73;170.40;;;;;;;15.54;90.07;99831.03;343262;28;1315;-74
2023/05/07 00:48:11;;;;;;;345.15;169.75;;;;;;;15.57;89.98;99828.25;346169;28;848;-74
2023/05/07 00:48:21;;;;;;;347.03;170.67;;;;;;;15.60;89.72;99833.31;346041;28;1300;-74
2023/05/07 00:48:31;;;;;;;346.67;170.32;;;;;;;15.60;89.86;99830.69;346026;28;1555;-75
2023/05/07 00:48:42;;;;;;;349.00;170.73;;;;;;;15.62;89.68;99827.97;346068;28;926;-75
2023/05/07 00:48:53;;;;;;;347.52;169.25;;;;;;;15.67;89.41;99832.97;343444;28;789;-75
2023/05/07 00:49:03;;;;;;;349.40;166.93;;;;;;;15.67;89.15;99833.81;343370;28;926;-75
2023/05/07 00:49:13;;;;;;;346.17;164.20;;;;;;;15.67;89.42;99832.97;344728;28;1205;-75
2023/05/07 00:49:26;;;;;;;346.90;166.40;;;;;;;15.67;89.43;99838.25;342112;28;1259;-74
2023/05/07 00:49:43;;;;;;;345.85;168.15;;;;;;;15.70;89.23;99832.78;340794;28;2311;-74
2023/05/07 00:49:53;;;;;;;347.75;169.63;;;;;;;15.68;89.00;99837.31;343883;28;1304;-74
2023/05/07 00:50:05;;;;;;;348.20;170.97;;;;;;;15.62;88.97;99831.44;343371;28;1517;-74
2023/05/07 00:50:16;;;;;;;349.55;170.93;;;;;;;15.61;89.41;99835.03;344770;28;828;-74
2023/05/07 00:50:27;;;;;;;346.05;168.15;;;;;;;15.64;89.69;99829.56;341983;28;1390;-74
2023/05/07 00:50:38;;;;;;;345.23;167.55;;;;;;;15.65;89.58;99840.97;340680;28;1238;-75
2023/05/07 00:50:48;;;;;;;344.50;168.25;;;;;;;15.63;89.45;99830.50;341123;28;825;-75
2023/05/07 00:50:58;;;;;;;346.97;170.23;;;;;;;15.67;89.47;99838.25;341907;28;1292;-75
2023/05/07 00:51:11;;;;;;;347.10;168.43;;;;;;;15.67;89.46;99833.81;344334;28;1135;-74
2023/05/07 00:51:21;;;;;;;346.00;165.93;;;;;;;15.68;89.43;99835.53;340738;28;5316;-74
2023/05/07 00:51:32;;;;;;;344.30;166.23;;;;;;;15.69;89.48;99837.22;340936;28;1388;-76
2023/05/07 00:51:42;;;;;;;346.13;167.02;;;;;;;15.71;89.55;99837.13;342059;28;1209;-76
2023/05/07 00:51:52;;;;;;;350.43;167.43;;;;;;;15.70;89.78;99835.44;340859;28;1402;-74
2023/05/07 00:52:03;;;;;;;352.60;168.07;;;;;;;15.72;89.42;99836.19;336998;29;1445;-74
2023/05/07 00:52:14;;;;;;;350.67;167.80;;;;;;;15.73;89.54;99840.53;338173;29;959;-74
2023/05/07 00:52:25;;;;;;;346.10;167.63;;;;;;;15.72;89.29;99836.19;336881;29;1598;-74